Time;durP1;ratioP1;P1;durP2;ratioP2;P2;SDS_P1;SDS_P2;PMS_P1;PMS_P2;Temp;Humidity;BMP_temperature;BMP_pressure;BME280_temperature;BME280_humidity;BME280_pressure;Samples;Min_cycle;Max_cycle;Signal;HPM_P1;HPM_P2
2022/05/09 00:01:04;;;;;;;5.90;4.72;;;;;;;21.94;58.64;99428.78;1772648;80;25518;-85
2022/05/09 00:03:32;;;;;;;5.22;4.17;;;;;;;21.94;58.60;99426.59;1772359;81;25578;-85
2022/05/09 00:05:59;;;;;;;4.65;4.25;;;;;;;21.94;58.59;99430.17;1772570;79;27361;-84
2022/05/09 00:08:26;;;;;;;5.12;4.50;;;;;;;21.94;58.57;99433.58;1772527;80;25621;-85
2022/05/09 00:10:52;;;;;;;5.37;4.15;;;;;;;21.94;58.57;99432.18;1772408;81;25450;-85
2022/05/09 00:13:17;;;;;;;4.80;4.30;;;;;;;21.94;58.60;99434.97;1772591;79;25447;-85
2022/05/09 00:15:43;;;;;;;5.60;4.62;;;;;;;21.93;58.57;99442.52;1772745;79;25611;-84
2022/05/09 00:18:09;;;;;;;5.37;4.08;;;;;;;21.93;58.58;99442.52;1772461;81;27447;-85
2022/05/09 00:20:35;;;;;;;5.65;4.40;;;;;;;21.94;58.58;99441.95;1772297;80;25596;-84
2022/05/09 00:23:01;;;;;;;4.75;4.28;;;;;;;21.93;58.57;99444.50;1772577;80;25675;-84
2022/05/09 00:25:28;;;;;;;5.17;4.20;;;;;;;21.93;58.57;99442.52;1772530;80;25435;-84
2022/05/09 00:27:55;;;;;;;5.08;4.25;;;;;;;21.93;58.55;99446.71;1772787;80;25577;-84
2022/05/09 00:30:21;;;;;;;4.50;4.10;;;;;;;21.92;58.54;99447.90;1772493;81;27451;-84
2022/05/09 00:32:48;;;;;;;4.65;4.17;;;;;;;21.89;58.61;99450.61;1772464;79;25724;-84
2022/05/09 00:35:14;;;;;;;4.72;4.00;;;;;;;21.89;58.62;99449.22;1769320;79;25623;-83
2022/05/09 00:37:41;;;;;;;4.58;4.12;;;;;;;21.89;58.61;99447.24;1772602;81;26199;-84
2022/05/09 00:40:10;;;;;;;4.65;4.10;;;;;;;21.88;58.62;99447.61;1772535;79;25600;-84
2022/05/09 00:42:40;;;;;;;4.63;3.87;;;;;;;21.89;58.63;99453.41;1772868;81;27539;-84
2022/05/09 00:45:08;;;;;;;4.60;4.08;;;;;;;21.87;58.60;99450.98;1772130;79;25431;-85
2022/05/09 00:47:34;;;;;;;4.75;4.25;;;;;;;21.87;58.62;99455.17;1772205;81;25640;-85
2022/05/09 00:50:05;;;;;;;5.03;4.05;;;;;;;21.85;58.61;99449.17;1772584;81;25443;-85
2022/05/09 00:52:46;;;;;;;4.72;4.10;;;;;;;21.85;58.65;99451.97;1772759;81;25550;-85
2022/05/09 00:55:26;;;;;;;4.58;4.10;;;;;;;21.85;58.66;99453.94;1772377;80;27316;-85
2022/05/09 00:58:24;;;;;;;4.92;4.42;;;;;;;21.83;58.69;99450.13;1772775;81;25458;-84
2022/05/09 01:00:52;;;;;;;4.92;4.40;;;;;;;21.82;58.70;99451.31;1772356;80;25631;-85
2022/05/09 01:03:24;;;;;;;4.42;3.72;;;;;;;21.80;58.73;99445.28;1772555;80;26268;-85
2022/05/09 01:05:51;;;;;;;5.58;4.60;;;;;;;21.79;58.74;99443.08;1772327;80;25462;-84
2022/05/09 01:08:19;;;;;;;4.60;4.03;;;;;;;21.79;58.72;99443.08;1772809;79;27420;-85
2022/05/09 01:10:47;;;;;;;4.55;4.12;;;;;;;21.79;58.73;99447.27;1772624;80;25236;-85
2022/05/09 01:13:16;;;;;;;5.80;3.92;;;;;;;21.78;58.73;99450.42;1772412;79;25420;-84
2022/05/09 01:15:46;;;;;;;4.58;3.87;;;;;;;21.79;58.78;99453.45;1772615;79;25713;-84
2022/05/09 01:18:13;;;;;;;5.03;4.40;;;;;;;21.79;58.74;99461.81;1772427;79;25436;-84
2022/05/09 01:20:39;;;;;;;5.35;4.25;;;;;;;21.79;58.73;99456.23;1759572;80;28272;-84
2022/05/09 01:23:07;;;;;;;5.65;3.95;;;;;;;21.77;58.76;99454.39;1780872;80;25667;-84
2022/05/09 01:25:33;;;;;;;4.30;3.90;;;;;;;21.77;58.78;99454.39;1780732;79;25681;-84
2022/05/09 01:28:00;;;;;;;4.30;3.77;;;;;;;21.77;58.76;99466.38;1780716;80;25479;-84
2022/05/09 01:30:52;;;;;;;4.70;4.08;;;;;;;21.78;58.75;99467.97;1780578;79;25723;-84
2022/05/09 01:33:35;;;;;;;5.08;4.17;;;;;;;21.77;58.75;99469.73;1777320;79;28288;-84
2022/05/09 01:36:12;;;;;;;4.87;4.10;;;;;;;21.78;58.74;99474.13;1781015;79;25616;-84
2022/05/09 01:39:01;;;;;;;4.75;4.20;;;;;;;21.77;58.74;99473.92;1781089;79;25467;-84
2022/05/09 01:41:29;;;;;;;4.37;3.87;;;;;;;21.78;58.74;99476.92;1780991;80;25600;-84
2022/05/09 01:43:55;;;;;;;5.35;3.87;;;;;;;21.76;58.76;99477.29;1758888;80;25661;-84
2022/05/09 01:46:28;;;;;;;4.60;3.98;;;;;;;21.75;58.76;99470.08;1780896;80;27344;-84
2022/05/09 01:51:42;;;;;;;4.70;4.10;;;;;;;21.76;58.76;99477.29;1780617;80;25584;-84
2022/05/09 01:54:10;;;;;;;5.15;4.20;;;;;;;21.77;58.75;99479.50;1780979;80;26044;-83
2022/05/09 01:56:39;;;;;;;4.83;4.30;;;;;;;21.76;58.75;99475.11;1780897;79;25621;-83
2022/05/09 01:59:08;;;;;;;4.78;4.10;;;;;;;21.75;58.76;99477.05;1781111;79;27540;-83
2022/05/09 02:01:39;;;;;;;4.03;3.60;;;;;;;21.74;58.77;99467.08;1780828;80;25692;-84
2022/05/09 02:04:06;;;;;;;4.75;4.08;;;;;;;21.75;58.75;99472.86;1781022;79;25540;-84
2022/05/09 02:06:33;;;;;;;5.25;4.17;;;;;;;21.76;58.74;99469.53;1781093;80;25647;-84
2022/05/09 02:08:58;;;;;;;4.58;4.00;;;;;;;21.76;58.71;99473.11;1780840;79;25641;-84
2022/05/09 02:11:24;;;;;;;4.85;4.30;;;;;;;21.74;58.74;99468.47;1780954;79;27427;-85
2022/05/09 02:13:50;;;;;;;4.83;3.95;;;;;;;21.74;58.73;99474.05;1780941;79;25823;-85
2022/05/09 02:16:16;;;;;;;4.70;4.08;;;;;;;21.74;58.76;99477.42;1780938;79;25457;-84
2022/05/09 02:18:43;;;;;;;4.67;3.77;;;;;;;21.75;58.74;99472.05;1780806;79;25475;-84
2022/05/09 02:21:09;;;;;;;4.75;4.15;;;;;;;21.75;58.70;99471.47;1773371;79;25684;-84
2022/05/09 02:23:35;;;;;;;4.70;4.12;;;;;;;21.74;58.73;99479.62;1772760;80;27479;-85
2022/05/09 02:26:02;;;;;;;5.08;4.42;;;;;;;21.73;58.72;99473.81;1772497;79;25803;-85
2022/05/09 02:28:28;;;;;;;4.80;4.12;;;;;;;21.75;58.73;99480.42;1772715;79;25624;-85
2022/05/09 02:30:55;;;;;;;5.22;4.25;;;;;;;21.73;58.71;99479.39;1772584;80;25643;-85
2022/05/09 02:33:21;;;;;;;4.25;3.83;;;;;;;21.74;58.71;99485.21;1772731;79;25641;-84
2022/05/09 02:35:48;;;;;;;5.65;4.47;;;;;;;21.75;58.70;99481.81;1772814;80;27355;-85
2022/05/09 02:38:15;;;;;;;4.95;3.80;;;;;;;21.74;58.69;99478.23;1772586;80;25669;-85
2022/05/09 02:40:41;;;;;;;4.25;3.60;;;;;;;21.74;58.67;99491.37;1772521;79;25625;-84
2022/05/09 02:43:07;;;;;;;4.42;3.77;;;;;;;21.74;58.70;99492.77;1772705;81;25629;-85
2022/05/09 02:45:33;;;;;;;4.50;4.03;;;;;;;21.73;58.70;99493.95;1772750;81;25625;-84
2022/05/09 02:47:59;;;;;;;4.80;3.90;;;;;;;21.73;58.70;99493.34;1772618;79;27000;-85
2022/05/09 02:50:27;;;;;;;5.00;3.95;;;;;;;21.72;58.70;99493.70;1772625;79;25771;-84
2022/05/09 02:52:54;;;;;;;5.60;4.10;;;;;;;21.72;58.72;99488.13;1772645;81;25459;-84
2022/05/09 02:55:22;;;;;;;5.28;4.17;;;;;;;21.72;58.70;99492.31;1772571;81;25680;-84
2022/05/09 02:57:50;;;;;;;4.85;4.00;;;;;;;21.69;58.72;99489.11;1772706;79;25613;-84
2022/05/09 03:00:26;;;;;;;4.78;4.10;;;;;;;21.68;58.73;99490.27;1772617;80;27369;-84
2022/05/09 03:05:40;;;;;;;5.15;3.90;;;;;;;21.70;58.71;99496.86;1772341;81;25448;-84
2022/05/09 03:08:09;;;;;;;4.47;3.70;;;;;;;21.67;58.72;99502.61;1772500;79;26188;-84
2022/05/09 03:10:37;;;;;;;4.20;3.77;;;;;;;21.66;58.74;99501.58;1759521;81;25712;-84
2022/05/09 03:13:06;;;;;;;5.12;3.83;;;;;;;21.66;58.74;99503.79;1772648;79;26866;-84
2022/05/09 03:15:37;;;;;;;4.67;3.80;;;;;;;21.67;58.73;99504.58;1772910;79;25833;-84
2022/05/09 03:18:04;;;;;;;4.62;3.87;;;;;;;21.67;58.72;99508.18;1772276;80;25504;-83
2022/05/09 03:20:30;;;;;;;4.42;3.98;;;;;;;21.67;58.73;99518.52;1780091;79;25689;-84
2022/05/09 03:22:57;;;;;;;4.15;3.58;;;;;;;21.65;58.76;99511.92;1789276;80;25664;-83
2022/05/09 03:25:23;;;;;;;4.08;3.67;;;;;;;21.66;58.76;99515.52;1788883;80;28293;-84
2022/05/09 03:27:50;;;;;;;5.55;4.00;;;;;;;21.67;58.74;99505.97;1789566;79;25482;-83
2022/05/09 03:30:18;;;;;;;4.33;3.75;;;;;;;21.68;58.73;99509.00;1789141;80;25645;-84
2022/05/09 03:32:44;;;;;;;5.25;4.10;;;;;;;21.68;58.74;99522.95;1789175;80;25652;-84
2022/05/09 03:35:11;;;;;;;4.65;4.00;;;;;;;21.68;58.72;99514.58;1788809;79;25628;-85
2022/05/09 03:37:38;;;;;;;4.10;3.70;;;;;;;21.67;58.69;99522.13;1789109;79;28192;-85
2022/05/09 03:40:06;;;;;;;4.67;3.70;;;;;;;21.67;58.72;99517.95;1789056;80;26072;-84
2022/05/09 03:42:33;;;;;;;4.70;3.70;;;;;;;21.67;58.73;99534.68;1789156;79;25587;-85
2022/05/09 03:44:59;;;;;;;4.85;3.70;;;;;;;21.67;58.72;99539.44;1789309;80;25557;-85
2022/05/09 03:47:25;;;;;;;4.40;3.80;;;;;;;21.64;58.74;99538.20;1789208;79;25496;-85
2022/05/09 03:49:52;;;;;;;4.92;4.10;;;;;;;21.65;58.76;99545.99;1789190;80;27338;-85
2022/05/09 03:52:17;;;;;;;4.50;4.00;;;;;;;21.64;58.77;99552.15;1788774;80;25751;-85
2022/05/09 03:54:43;;;;;;;4.20;3.80;;;;;;;21.66;58.78;99551.78;1789266;79;25612;-85
2022/05/09 03:57:09;;;;;;;4.97;3.90;;;;;;;21.65;58.76;99550.97;1789311;79;25418;-85
2022/05/09 03:59:35;;;;;;;4.40;3.80;;;;;;;21.65;58.78;99546.78;1789343;80;25592;-85
2022/05/09 04:02:01;;;;;;;4.62;3.85;;;;;;;21.65;58.76;99549.57;1789084;80;27457;-85
2022/05/09 04:04:27;;;;;;;4.90;3.80;;;;;;;21.66;58.76;99552.60;1789158;79;25486;-85
2022/05/09 04:06:53;;;;;;;3.98;3.55;;;;;;;21.66;58.76;99551.78;1789243;79;25477;-85
2022/05/09 04:09:20;;;;;;;4.95;3.65;;;;;;;21.66;58.76;99551.78;1789187;79;25479;-85
2022/05/09 04:11:48;;;;;;;3.95;3.52;;;;;;;21.66;58.76;99552.60;1788864;79;25659;-84
2022/05/09 04:14:16;;;;;;;4.67;3.70;;;;;;;21.65;58.78;99553.75;1785480;79;28342;-84
2022/05/09 04:16:51;;;;;;;4.72;3.85;;;;;;;21.65;58.78;99550.97;1788988;80;25588;-83
2022/05/09 04:19:20;;;;;;;4.58;3.85;;;;;;;21.64;58.79;99545.17;1788860;79;25489;-84
2022/05/09 04:21:47;;;;;;;4.30;3.60;;;;;;;21.64;58.80;99556.33;1789089;80;26416;-84
2022/05/09 04:24:13;;;;;;;4.00;3.50;;;;;;;21.64;58.79;99545.75;1789162;79;25592;-83
2022/05/09 04:26:40;;;;;;;3.95;3.45;;;;;;;21.63;58.83;99546.36;1789136;80;27451;-84
2022/05/09 04:29:06;;;;;;;3.77;3.33;;;;;;;21.63;58.84;99545.55;1789305;80;25486;-84
2022/05/09 04:31:33;;;;;;;4.85;3.65;;;;;;;21.63;58.85;99551.13;1788779;79;25467;-84
2022/05/09 04:34:00;;;;;;;4.20;3.62;;;;;;;21.63;58.83;99546.94;1788800;80;25678;-83
2022/05/09 04:36:28;;;;;;;4.75;3.85;;;;;;;21.63;58.84;99546.94;1788978;80;25455;-84
2022/05/09 04:38:54;;;;;;;4.90;3.80;;;;;;;21.62;58.86;99548.12;1788839;80;28328;-83
2022/05/09 04:41:22;;;;;;;4.37;3.65;;;;;;;21.63;58.88;99551.13;1789193;80;25664;-84
2022/05/09 04:43:48;;;;;;;4.03;3.45;;;;;;;21.66;58.85;99550.39;1788954;79;25700;-84
2022/05/09 04:46:16;;;;;;;4.28;3.67;;;;;;;21.70;58.87;99552.66;1789275;80;25428;-84
2022/05/09 04:48:44;;;;;;;4.05;3.40;;;;;;;21.74;58.78;99560.53;1789272;79;25648;-84
2022/05/09 04:51:11;;;;;;;3.90;3.37;;;;;;;21.78;58.75;99562.82;1788983;79;27472;-84
2022/05/09 04:53:38;;;;;;;3.47;3.17;;;;;;;21.83;58.69;99565.09;1789174;80;25715;-84
2022/05/09 04:56:06;;;;;;;4.05;3.42;;;;;;;21.86;58.63;99565.17;1789171;80;25671;-85
2022/05/09 04:58:32;;;;;;;4.17;3.60;;;;;;;21.89;58.62;99564.43;1789147;79;25586;-85
2022/05/09 05:00:59;;;;;;;4.80;3.70;;;;;;;21.89;58.59;99564.43;1789180;80;25701;-85
2022/05/09 05:03:27;;;;;;;4.00;3.47;;;;;;;21.90;58.54;99563.83;1788480;80;27460;-85
2022/05/09 05:05:53;;;;;;;4.40;3.80;;;;;;;21.90;58.52;99566.03;1788060;80;25871;-84
2022/05/09 05:08:21;;;;;;;4.22;3.60;;;;;;;21.89;58.51;99571.41;1788875;80;25799;-85
2022/05/09 05:10:53;;;;;;;4.42;3.50;;;;;;;21.88;58.49;99572.56;1789155;80;25485;-84
2022/05/09 05:13:17;;;;;;;4.05;3.60;;;;;;;21.88;58.48;99566.20;1788319;80;25109;-85
2022/05/09 05:15:43;;;;;;;4.15;3.70;;;;;;;21.89;58.45;99576.17;1789203;80;27454;-84
2022/05/09 05:18:11;;;;;;;4.05;3.47;;;;;;;21.87;58.43;99576.53;1789196;80;25459;-84
2022/05/09 05:20:37;;;;;;;3.80;3.40;;;;;;;21.86;58.44;99572.14;1788243;79;25431;-84
2022/05/09 05:23:03;;;;;;;4.70;4.00;;;;;;;21.86;58.42;99576.91;1786783;80;25588;-85
2022/05/09 05:25:31;;;;;;;4.70;3.58;;;;;;;21.86;58.34;99576.91;1786763;80;25436;-85
2022/05/09 05:27:57;;;;;;;5.37;4.15;;;;;;;21.83;58.30;99581.25;1786690;80;28352;-84
2022/05/09 05:30:25;;;;;;;5.95;3.80;;;;;;;21.83;58.05;99588.80;1786566;80;25470;-84
2022/05/09 05:32:52;;;;;;;5.58;4.30;;;;;;;21.78;57.45;99582.35;1786890;80;25617;-85
2022/05/09 05:35:23;;;;;;;4.60;4.20;;;;;;;21.75;57.05;99588.63;1786913;80;25396;-85
2022/05/09 05:37:49;;;;;;;5.30;3.95;;;;;;;21.73;56.96;99590.19;1786520;80;25680;-85
2022/05/09 05:40:17;;;;;;;7.45;4.33;;;;;;;21.71;56.79;99591.95;1786928;80;27417;-84
2022/05/09 05:42:45;;;;;;;5.65;4.08;;;;;;;21.67;56.81;99591.86;1755957;80;25526;-84
2022/05/09 05:45:15;;;;;;;5.58;4.28;;;;;;;21.66;56.64;99598.63;1786705;80;25497;-84
2022/05/09 05:47:42;;;;;;;6.25;4.70;;;;;;;21.64;56.52;99589.80;1786796;80;25612;-84
2022/05/09 05:50:12;;;;;;;5.28;4.35;;;;;;;21.62;56.15;99592.75;1786654;80;25442;-84
2022/05/09 05:52:38;;;;;;;4.83;4.33;;;;;;;21.59;55.97;99592.90;1786921;80;27381;-84
2022/05/09 05:55:06;;;;;;;7.05;4.47;;;;;;;21.59;55.97;99592.90;1786619;80;25857;-84
2022/05/09 05:57:38;;;;;;;6.00;4.20;;;;;;;21.61;55.71;99593.90;1786950;80;25470;-85
2022/05/09 06:00:12;;;;;;;5.75;4.30;;;;;;;21.61;55.59;99589.14;1786368;80;25637;-85
2022/05/09 06:02:39;;;;;;;6.10;4.58;;;;;;;21.65;55.64;99592.02;1786705;80;25620;-85
2022/05/09 06:05:09;;;;;;;6.15;4.20;;;;;;;21.69;55.64;99596.49;1786884;80;27424;-85
2022/05/09 06:07:36;;;;;;;;;;;;;;;21.74;55.62;99594.58;1789316;80;25582;-85
2022/05/09 06:10:04;;;;;;;5.55;4.10;;;;;;;21.77;55.34;99593.30;1786658;80;25600;-85
2022/05/09 06:12:31;;;;;;;5.40;4.05;;;;;;;21.80;55.33;99598.14;1786695;80;25593;-85
2022/05/09 06:17:42;;;;;;;6.28;4.30;;;;;;;21.85;55.00;99594.83;1786539;80;27411;-85
2022/05/09 06:20:12;;;;;;;5.72;3.90;;;;;;;21.87;55.00;99598.04;1786560;80;25829;-85
2022/05/09 06:22:40;;;;;;;6.22;3.92;;;;;;;21.90;54.62;99604.28;1763265;80;25658;-85
2022/05/09 06:25:11;;;;;;;5.28;3.60;;;;;;;21.90;54.62;99604.28;1761159;81;25439;-85
2022/05/09 06:27:38;;;;;;;5.05;3.85;;;;;;;21.92;54.82;99604.73;1761541;81;25613;-85
2022/05/09 06:30:07;;;;;;;5.22;3.37;;;;;;;21.93;54.90;99601.57;1767209;81;28125;-85
2022/05/09 06:32:34;;;;;;;4.70;3.50;;;;;;;21.98;54.75;99602.44;1772446;81;25601;-85
2022/05/09 06:35:02;;;;;;;4.33;3.47;;;;;;;22.00;54.77;99610.69;1772755;81;25457;-85
2022/05/09 06:37:32;;;;;;;6.20;4.00;;;;;;;22.01;55.00;99603.92;1772534;81;25616;-86
2022/05/09 06:39:56;;;;;;;11.12;4.95;;;;;;;22.05;55.17;99605.39;1772089;80;25599;-86
2022/05/09 06:42:23;;;;;;;13.88;5.40;;;;;;;22.08;55.20;99603.27;1772699;79;27288;-85
2022/05/09 06:44:49;;;;;;;12.85;5.87;;;;;;;22.10;55.42;99613.45;1772545;79;25463;-85
2022/05/09 06:47:15;;;;;;;13.93;5.37;;;;;;;22.12;55.35;99611.69;1772778;81;25721;-85
2022/05/09 06:49:42;;;;;;;14.70;5.70;;;;;;;22.14;55.39;99611.53;1772587;81;26021;-85
2022/05/09 06:52:08;;;;;;;12.33;5.05;;;;;;;22.15;55.37;99615.95;1772730;79;25419;-86
2022/05/09 06:54:35;;;;;;;16.00;5.10;;;;;;;22.17;55.46;99605.81;1772488;81;27356;-85
2022/05/09 06:57:01;;;;;;;12.20;5.33;;;;;;;22.21;55.46;99608.66;1772619;81;25482;-86
2022/05/09 06:59:27;;;;;;;9.85;4.37;;;;;;;22.22;55.47;99608.28;1772716;79;25486;-86
2022/05/09 07:01:54;;;;;;;10.93;4.37;;;;;;;22.24;55.47;99610.13;1772444;79;26162;-86
2022/05/09 07:04:20;;;;;;;6.67;4.35;;;;;;;22.27;55.37;99608.58;1772672;81;25471;-86
2022/05/09 07:06:46;;;;;;;7.20;4.62;;;;;;;22.29;55.39;99604.83;1773127;81;27962;-86
2022/05/09 07:09:15;;;;;;;5.60;3.60;;;;;;;22.33;55.37;99607.09;1769193;81;25943;-85
2022/05/09 07:11:41;;;;;;;10.30;4.00;;;;;;;22.36;55.26;99610.54;1772280;80;25448;-85
2022/05/09 07:14:08;;;;;;;7.28;3.60;;;;;;;22.39;55.17;99610.41;1772719;79;25957;-85
2022/05/09 07:16:34;;;;;;;8.03;3.67;;;;;;;22.41;55.17;99615.83;1772384;81;25428;-85
2022/05/09 07:19:00;;;;;;;5.78;3.35;;;;;;;22.47;55.14;99614.11;1772683;81;27420;-85
2022/05/09 07:21:28;;;;;;;6.62;3.72;;;;;;;22.50;55.10;99613.37;1777301;79;25507;-84
2022/05/09 07:23:54;;;;;;;6.47;3.65;;;;;;;22.52;54.97;99609.05;1789361;80;25508;-86
2022/05/09 07:26:20;;;;;;;5.58;3.20;;;;;;;22.55;54.85;99614.47;1789194;79;25440;-85
2022/05/09 07:28:47;;;;;;;6.62;3.37;;;;;;;22.58;54.85;99614.30;1789131;80;25922;-85
2022/05/09 07:31:13;;;;;;;6.75;3.50;;;;;;;22.59;54.70;99616.75;1789175;79;27331;-85
2022/05/09 07:33:39;;;;;;;3.83;2.65;;;;;;;22.62;54.52;99613.22;1789241;80;25706;-85
2022/05/09 07:36:06;;;;;;;4.90;2.90;;;;;;;22.65;54.48;99609.68;1789312;80;25774;-85
2022/05/09 07:38:33;;;;;;;5.67;3.27;;;;;;;22.68;54.43;99613.13;1789198;80;25490;-85
2022/05/09 07:40:59;;;;;;;5.08;3.25;;;;;;;22.71;54.41;99615.75;1789247;80;25434;-84
2022/05/09 07:43:30;;;;;;;4.90;2.87;;;;;;;22.74;54.39;99620.59;1789189;80;26781;-84
2022/05/09 07:45:56;;;;;;;;;;;;;;;22.76;54.38;99612.66;1791777;80;25800;-84
2022/05/09 07:48:29;;;;;;;4.97;2.70;;;;;;;22.79;54.31;99617.50;1788851;80;25543;-85
2022/05/09 07:50:58;;;;;;;3.90;2.67;;;;;;;22.81;54.39;99616.55;1789249;79;25993;-84
2022/05/09 07:53:32;;;;;;;4.47;2.72;;;;;;;22.81;54.39;99615.15;1789323;80;25709;-84
2022/05/09 07:56:00;;;;;;;7.75;2.80;;;;;;;22.83;54.15;99614.78;1789352;80;28113;-84
2022/05/09 07:58:27;;;;;;;5.53;2.75;;;;;;;22.84;53.97;99623.95;1769049;80;25687;-84
2022/05/09 08:00:58;;;;;;;3.42;2.50;;;;;;;22.83;53.88;99623.16;1789220;80;25593;-84
2022/05/09 08:03:23;;;;;;;5.83;3.00;;;;;;;22.83;53.82;99627.35;1788160;79;25577;-85
2022/05/09 08:05:50;;;;;;;6.62;3.25;;;;;;;22.83;53.67;99618.15;1789149;79;25671;-85
2022/05/09 08:08:18;;;;;;;5.50;2.45;;;;;;;22.81;53.64;99619.34;1785767;80;27460;-86
2022/05/09 08:10:45;;;;;;;4.47;2.40;;;;;;;22.80;53.51;99624.69;1789161;79;25470;-87
2022/05/09 08:13:14;;;;;;;6.08;2.80;;;;;;;22.78;53.57;99622.06;1789133;80;25628;-87
2022/05/09 08:15:41;;;;;;;4.85;2.80;;;;;;;22.79;53.54;99625.06;1789058;80;25651;-87
2022/05/09 08:18:07;;;;;;;3.37;2.35;;;;;;;22.81;53.38;99624.11;1789072;80;25670;-86
2022/05/09 08:20:35;;;;;;;5.10;2.80;;;;;;;22.83;53.08;99629.33;1789292;80;27400;-87
2022/05/09 08:23:13;;;;;;;5.25;2.25;;;;;;;22.81;53.10;99621.31;1788689;79;25906;-87
2022/05/09 08:25:44;;;;;;;6.05;2.42;;;;;;;22.80;52.67;99626.70;1789217;79;25742;-87
2022/05/09 08:28:10;;;;;;;2.95;2.15;;;;;;;22.80;52.52;99630.28;1789067;80;25539;-87
2022/05/09 08:30:38;;;;;;;6.20;2.60;;;;;;;22.76;52.63;99635.02;1788928;79;25697;-87
2022/05/09 08:33:09;;;;;;;6.08;2.65;;;;;;;22.76;52.66;99631.40;1789229;80;27566;-86
2022/05/09 08:35:36;;;;;;;6.65;2.27;;;;;;;22.73;52.79;99631.56;1788732;79;25668;-86
2022/05/09 08:38:02;;;;;;;5.62;2.60;;;;;;;22.72;52.92;99632.75;1789163;79;25645;-87
2022/05/09 08:40:40;;;;;;;5.65;2.50;;;;;;;22.73;52.90;99629.35;1789155;80;25983;-87
2022/05/09 08:43:30;;;;;;;10.48;2.65;;;;;;;22.75;52.74;99632.59;1786604;80;25766;-87
2022/05/09 08:46:20;;;;;;;7.33;2.50;;;;;;;22.73;52.63;99632.14;1789599;79;27430;-89
2022/05/09 08:49:08;;;;;;;6.60;2.70;;;;;;;22.69;52.68;99637.69;1789377;79;25799;-89
2022/05/09 08:51:49;;;;;;;6.03;2.60;;;;;;;22.66;52.72;99630.05;1789233;79;25447;-88
2022/05/09 08:54:20;;;;;;;7.28;2.50;;;;;;;22.65;52.82;99629.23;1788561;79;25582;-89
2022/05/09 08:56:50;;;;;;;7.10;2.72;;;;;;;22.67;52.96;99630.26;1789118;79;25664;-88
2022/05/09 08:59:22;;;;;;;3.65;2.52;;;;;;;22.64;53.23;99642.99;1789369;80;27278;-89
2022/05/09 09:01:53;;;;;;;5.00;2.37;;;;;;;22.65;53.29;99641.80;1788652;79;25660;-88
2022/05/09 09:04:26;;;;;;;10.95;2.67;;;;;;;22.66;53.14;99635.64;1784506;79;25605;-89
2022/05/09 09:07:34;;;;;;;7.60;2.40;;;;;;;22.67;53.05;99645.05;1789072;79;26323;-89
2022/05/09 09:10:27;;;;;;;9.73;2.58;;;;;;;22.67;53.02;99651.20;1787553;80;25811;-83
2022/05/09 09:13:28;;;;;;;5.78;2.40;;;;;;;22.62;52.83;99641.15;1787706;79;27410;-83
2022/05/09 09:16:12;;;;;;;6.28;2.33;;;;;;;22.58;52.19;99648.67;1744448;82;25815;-89
2022/05/09 09:18:55;;;;;;;5.58;2.30;;;;;;;22.54;52.66;99640.19;1696805;84;25700;-85
2022/05/09 09:21:38;;;;;;;5.70;2.50;;;;;;;22.56;52.13;99647.61;1697071;84;25543;-85
2022/05/09 09:24:25;;;;;;;6.78;2.30;;;;;;;22.59;51.87;99654.46;1696705;84;25789;-84
2022/05/09 09:27:35;;;;;;;4.28;2.55;;;;;;;22.60;52.05;99646.33;1697198;84;27449;-84
2022/05/09 09:30:13;;;;;;;5.62;2.52;;;;;;;22.60;52.26;99649.69;1676387;85;33316;-84
2022/05/09 09:32:44;;;;;;;7.62;2.55;;;;;;;22.57;52.15;99644.24;1677618;85;25723;-83
2022/05/09 09:35:30;;;;;;;;;;;;;;;22.55;52.14;99646.59;1680114;85;25519;-84
2022/05/09 09:38:19;;;;;;;3.50;2.20;;;;;;;22.56;51.32;99651.80;1677387;85;25723;-84
2022/05/09 09:40:45;;;;;;;5.42;2.50;;;;;;;22.52;51.56;99652.34;1675793;85;27488;-85
2022/05/09 09:43:12;;;;;;;4.75;2.58;;;;;;;22.53;51.41;99648.36;1649984;86;25769;-84
2022/05/09 10:01:16;;;;;;;2.62;1.70;;;;;;;21.54;40.74;99605.15;1796547;79;25521;-61
2022/05/09 10:03:48;;;;;;;6.67;3.15;;;;;;;21.90;36.56;99605.67;1755115;81;25474;-61
2022/05/09 10:06:21;;;;;;;4.03;2.70;;;;;;;21.80;37.56;99602.33;1753878;81;27473;-63
2022/05/09 10:09:06;;;;;;;5.15;3.17;;;;;;;22.26;36.63;99602.78;1756864;81;25435;-58
2022/05/09 10:11:33;;;;;;;4.35;3.00;;;;;;;22.75;36.46;99590.09;1756963;81;25604;-61
2022/05/09 10:14:05;;;;;;;6.83;3.10;;;;;;;23.09;35.22;99596.98;1756691;81;25558;-58
2022/05/09 10:16:45;;;;;;;5.47;2.83;;;;;;;23.25;35.28;99594.83;1757083;81;25438;-59
2022/05/09 10:19:13;;;;;;;8.10;3.15;;;;;;;23.22;35.37;99593.37;1756457;81;25883;-60
2022/05/09 10:24:51;;;;;;;5.25;2.87;;;;;;;23.17;34.27;99593.12;1756479;81;25399;-59
2022/05/09 10:27:28;;;;;;;3.83;2.20;;;;;;;23.26;34.84;99589.44;1756741;81;25578;-57
2022/05/09 10:30:08;;;;;;;4.05;2.60;;;;;;;23.80;32.18;99582.37;1756747;81;25641;-58
2022/05/09 10:32:48;;;;;;;6.05;3.30;;;;;;;24.04;33.59;99582.25;1756671;81;27523;-58
2022/05/09 10:35:18;;;;;;;;;;;;;;;23.76;32.49;99590.52;1759016;81;25434;-58
2022/05/09 10:37:53;;;;;;;4.90;2.73;;;;;;;23.81;31.65;99585.98;1757071;81;25636;-57
2022/05/09 10:40:28;;;;;;;6.65;2.85;;;;;;;24.00;30.77;99578.00;1756700;81;25681;-58
2022/05/09 10:43:27;;;;;;;4.92;2.45;;;;;;;23.45;31.28;99580.74;1756651;81;25602;-59
2022/05/09 10:45:54;;;;;;;2.90;2.15;;;;;;;22.98;31.40;99582.84;1756656;81;27375;-57
2022/05/09 10:48:35;;;;;;;7.83;3.83;;;;;;;23.12;33.22;99580.86;1756632;81;25646;-58
2022/05/09 10:51:12;;;;;;;4.08;2.40;;;;;;;23.56;32.73;99580.30;1756851;81;25665;-60
2022/05/09 10:53:56;;;;;;;4.42;2.50;;;;;;;23.84;32.30;99576.83;1743135;82;25683;-59
2022/05/09 10:56:33;;;;;;;3.22;2.33;;;;;;;24.33;32.42;99571.95;1725801;83;25678;-58
2022/05/09 10:59:05;;;;;;;4.85;2.50;;;;;;;25.12;30.45;99568.98;1725854;83;27575;-60
2022/05/09 11:01:42;;;;;;;2.95;2.30;;;;;;;25.24;28.93;99567.06;1726024;83;25534;-58
2022/05/09 11:04:10;;;;;;;5.33;3.08;;;;;;;25.35;29.64;99569.89;1726069;83;25817;-59
2022/05/09 11:07:04;;;;;;;3.87;2.30;;;;;;;25.21;28.47;99563.63;1725769;83;25605;-58
2022/05/09 11:10:17;;;;;;;5.47;2.25;;;;;;;24.61;29.00;99565.78;1726012;83;26002;-57
2022/05/09 11:13:11;;;;;;;5.83;2.72;;;;;;;23.70;30.15;99563.47;1724976;83;26927;-57
2022/05/09 11:16:06;;;;;;;4.60;2.42;;;;;;;23.25;30.56;99557.66;1725338;83;25690;-58
2022/05/09 11:19:04;;;;;;;3.27;2.20;;;;;;;23.38;30.56;99547.09;1724485;83;25686;-57
2022/05/09 11:21:57;;;;;;;5.40;2.37;;;;;;;23.79;29.79;99547.19;1725298;83;25569;-58
2022/05/09 11:24:51;;;;;;;3.87;2.17;;;;;;;24.68;29.89;99537.02;1725060;83;25466;-59
2022/05/09 11:27:59;;;;;;;2.87;2.00;;;;;;;25.83;29.53;99547.06;1725396;83;27531;-58
2022/05/09 11:30:45;;;;;;;2.65;1.85;;;;;;;26.71;28.62;99536.75;1691425;84;25595;-57
2022/05/09 11:33:46;;;;;;;3.70;2.10;;;;;;;26.83;27.14;99531.30;1687569;84;25792;-58
2022/05/09 11:36:59;;;;;;;4.65;2.22;;;;;;;26.76;26.60;99532.10;1696165;84;27191;-62
2022/05/09 11:39:39;;;;;;;3.87;1.98;;;;;;;26.39;25.89;99534.94;1695683;84;25674;-63
2022/05/09 11:45:47;;;;;;;4.25;2.10;;;;;;;24.50;27.73;99536.30;1696317;84;25801;-61
2022/05/09 11:48:51;;;;;;;7.92;2.08;;;;;;;23.78;27.37;99531.56;1696176;84;25779;-63
2022/05/09 11:51:54;;;;;;;11.43;2.00;;;;;;;23.24;28.73;99535.09;1696563;84;25732;-63
2022/05/09 11:54:37;;;;;;;3.22;1.90;;;;;;;23.23;29.19;99525.89;1696376;84;25679;-63
2022/05/09 11:57:15;;;;;;;3.72;2.20;;;;;;;24.31;28.00;99523.32;1696324;84;27897;-62
2022/05/09 11:59:53;;;;;;;3.42;1.70;;;;;;;24.99;26.69;99521.44;1691189;84;25733;-60
2022/05/09 12:02:46;;;;;;;3.50;1.85;;;;;;;25.42;26.02;99518.05;1745123;82;25514;-63
2022/05/09 12:05:33;;;;;;;4.58;2.20;;;;;;;26.00;27.05;99510.41;1748264;82;25681;-62
2022/05/09 12:08:21;;;;;;;3.15;1.75;;;;;;;26.76;24.64;99505.39;1748636;82;25634;-63
2022/05/09 12:11:12;;;;;;;5.47;2.20;;;;;;;26.56;25.60;99508.05;1748392;82;27438;-63
2022/05/09 12:13:44;;;;;;;3.60;1.90;;;;;;;26.83;24.01;99503.19;1748067;82;25809;-61
2022/05/09 12:16:16;;;;;;;5.97;1.90;;;;;;;26.74;24.79;99504.39;1748666;82;25434;-63
2022/05/09 12:19:01;;;;;;;4.00;1.82;;;;;;;26.06;24.57;99498.39;1737944;82;25658;-61
2022/05/09 12:21:32;;;;;;;4.75;2.15;;;;;;;25.17;25.28;99494.89;1748349;82;25579;-63
2022/05/09 12:24:22;;;;;;;3.55;1.62;;;;;;;24.33;25.81;99491.54;1748143;82;27114;-61
2022/05/09 12:26:53;;;;;;;5.37;2.25;;;;;;;23.77;25.62;99497.79;1747932;82;25769;-62